Time;durP1;ratioP1;P1;durP2;ratioP2;P2;SDS_P1;SDS_P2;PMS_P1;PMS_P2;Temp;Humidity;BMP_temperature;BMP_pressure;BME280_temperature;BME280_humidity;BME280_pressure;Samples;Min_cycle;Max_cycle;Signal;HPM_P1;HPM_P2
2023/08/23 00:01:59;;;;;;;4.97;4.50;;;24.00;99.90;;;;;;4990671;28;20212;-29
2023/08/23 00:04:26;;;;;;;8.05;4.40;;;23.90;99.90;;;;;;5010270;28;20266;-28
2023/08/23 00:06:52;;;;;;;6.65;4.82;;;23.90;99.90;;;;;;4997262;28;20277;-29
2023/08/23 00:09:18;;;;;;;5.25;4.40;;;23.80;99.90;;;;;;4980644;28;20302;-29
2023/08/23 00:11:44;;;;;;;5.50;4.60;;;23.80;99.90;;;;;;4999038;28;20230;-31
2023/08/23 00:14:10;;;;;;;5.22;3.95;;;23.70;99.90;;;;;;5008565;28;20207;-29
2023/08/23 00:16:36;;;;;;;6.70;4.85;;;23.60;99.90;;;;;;5000787;28;20191;-29
2023/08/23 00:19:02;;;;;;;5.80;5.20;;;23.50;99.90;;;;;;4990059;28;20211;-29
2023/08/23 00:21:29;;;;;;;6.25;4.38;;;23.50;99.90;;;;;;4998822;28;20214;-30
2023/08/23 00:23:55;;;;;;;5.60;4.53;;;23.50;99.90;;;;;;4974128;28;20270;-29
2023/08/23 00:26:21;;;;;;;5.28;4.63;;;23.50;99.90;;;;;;4972686;28;20188;-29
2023/08/23 00:28:47;;;;;;;5.82;4.40;;;23.40;99.90;;;;;;4989513;28;20202;-29
2023/08/23 00:31:13;;;;;;;6.10;4.60;;;23.40;99.90;;;;;;4990487;28;20188;-30
2023/08/23 00:33:39;;;;;;;5.85;4.47;;;23.30;99.90;;;;;;4998653;28;20212;-30
2023/08/23 00:36:05;;;;;;;7.70;4.80;;;23.30;99.90;;;;;;4994274;28;20175;-30
2023/08/23 00:38:31;;;;;;;6.70;4.35;;;23.30;99.90;;;;;;5004942;28;20343;-30
2023/08/23 00:40:58;;;;;;;6.82;5.10;;;23.30;99.90;;;;;;4990235;28;20180;-30
2023/08/23 00:43:24;;;;;;;6.72;4.63;;;23.30;99.90;;;;;;5005936;28;20190;-29
2023/08/23 00:45:50;;;;;;;6.88;4.85;;;23.30;99.90;;;;;;5005785;28;20179;-29
2023/08/23 00:48:16;;;;;;;6.82;5.32;;;23.30;99.90;;;;;;4973576;28;20255;-29
2023/08/23 00:50:44;;;;;;;6.70;4.93;;;23.20;99.90;;;;;;4974258;28;20203;-30
2023/08/23 00:53:11;;;;;;;5.88;5.28;;;23.10;99.90;;;;;;4978984;28;20231;-29
2023/08/23 00:55:37;;;;;;;7.07;5.43;;;23.20;99.90;;;;;;4999626;28;20183;-32
2023/08/23 00:58:04;;;;;;;5.35;4.82;;;23.10;99.90;;;;;;5004413;28;20286;-30
2023/08/23 01:00:33;;;;;;;5.78;4.45;;;23.10;99.90;;;;;;5009778;28;20315;-29
2023/08/23 01:03:02;;;;;;;5.75;4.55;;;23.00;99.90;;;;;;4992607;28;20195;-29
2023/08/23 01:05:52;;;;;;;6.15;4.55;;;22.90;99.90;;;;;;4985712;28;20275;-29
2023/08/23 01:08:40;;;;;;;5.55;4.70;;;22.90;99.90;;;;;;4989984;28;20246;-30
2023/08/23 01:11:33;;;;;;;5.60;4.53;;;22.80;99.90;;;;;;4990187;28;20176;-29
2023/08/23 01:14:15;;;;;;;5.32;4.65;;;22.70;99.90;;;;;;4974116;28;20188;-29
2023/08/23 01:16:47;;;;;;;6.45;4.93;;;22.70;99.90;;;;;;4990128;28;20207;-30
2023/08/23 01:19:36;;;;;;;6.10;4.68;;;22.60;99.90;;;;;;4990292;28;20207;-29
2023/08/23 01:22:05;;;;;;;6.07;4.47;;;22.60;99.90;;;;;;4991719;28;20176;-30
2023/08/23 01:24:31;;;;;;;4.75;4.35;;;22.50;99.90;;;;;;4973758;28;20194;-30
2023/08/23 01:26:58;;;;;;;5.53;4.15;;;22.40;99.90;;;;;;4973835;28;20187;-29
2023/08/23 01:29:24;;;;;;;5.03;4.57;;;22.40;99.90;;;;;;4991239;28;20200;-29
2023/08/23 01:31:56;;;;;;;7.10;4.60;;;22.40;99.90;;;;;;4973203;28;20208;-30
2023/08/23 01:34:34;;;;;;;7.75;4.40;;;22.40;99.90;;;;;;4972339;28;20179;-30
2023/08/23 01:37:02;;;;;;;7.03;5.22;;;22.40;99.90;;;;;;4973714;28;20180;-30
2023/08/23 01:39:29;;;;;;;5.65;4.82;;;22.40;99.90;;;;;;4974081;28;20231;-29
2023/08/23 01:41:55;;;;;;;6.30;4.88;;;22.30;99.90;;;;;;4990060;28;20180;-30
2023/08/23 01:44:21;;;;;;;5.35;4.72;;;22.30;99.90;;;;;;4988448;28;20342;-30
2023/08/23 01:46:47;;;;;;;8.02;5.07;;;22.20;99.90;;;;;;4972697;28;20179;-30
2023/08/23 01:49:13;;;;;;;5.60;5.10;;;22.20;99.90;;;;;;4973874;28;20294;-30
2023/08/23 01:51:39;;;;;;;5.70;5.20;;;22.10;99.90;;;;;;4989724;28;20287;-30
2023/08/23 01:54:05;;;;;;;7.00;5.25;;;22.10;99.90;;;;;;4990152;28;20183;-30
2023/08/23 01:56:30;;;;;;;5.07;4.68;;;22.10;99.90;;;;;;4976933;28;20184;-29
2023/08/23 01:58:56;;;;;;;5.63;4.80;;;22.00;99.90;;;;;;4977016;28;20200;-30
2023/08/23 02:01:22;;;;;;;5.90;5.32;;;22.00;99.90;;;;;;4977168;28;20180;-30
2023/08/23 02:03:48;;;;;;;5.25;4.75;;;22.00;99.90;;;;;;4977285;28;20176;-30
2023/08/23 02:06:14;;;;;;;5.38;4.70;;;22.20;99.90;;;;;;4976371;28;20172;-30
2023/08/23 02:08:39;;;;;;;7.95;4.75;;;22.20;99.90;;;;;;4976828;28;20215;-29
2023/08/23 02:11:05;;;;;;;6.57;5.22;;;22.10;99.90;;;;;;4977140;28;20220;-29
2023/08/23 02:13:32;;;;;;;4.88;4.45;;;22.10;99.90;;;;;;4977047;28;20212;-30
2023/08/23 02:15:58;;;;;;;7.05;4.68;;;22.10;99.90;;;;;;4993026;28;20263;-30
2023/08/23 02:18:24;;;;;;;5.30;4.80;;;22.10;99.90;;;;;;4976764;28;20212;-29
2023/08/23 02:20:59;;;;;;;5.88;4.90;;;22.00;99.90;;;;;;4976482;28;20288;-29
2023/08/23 02:23:25;;;;;;;5.43;4.32;;;22.00;99.90;;;;;;4977030;28;20183;-30
2023/08/23 02:25:52;;;;;;;8.38;5.50;;;22.00;99.90;;;;;;4976873;28;20255;-29
2023/08/23 02:28:18;;;;;;;6.63;4.65;;;22.00;99.90;;;;;;4976436;28;20233;-29
2023/08/23 02:30:45;;;;;;;5.90;4.63;;;21.90;99.90;;;;;;4992774;28;20184;-30
2023/08/23 02:33:10;;;;;;;5.53;4.68;;;21.90;99.90;;;;;;4992045;28;20208;-29
2023/08/23 02:35:43;;;;;;;7.20;4.85;;;21.80;99.90;;;;;;4976160;28;20187;-30
2023/08/23 02:38:09;;;;;;;5.03;4.53;;;21.80;99.90;;;;;;4976460;28;20224;-29
2023/08/23 02:40:35;;;;;;;6.05;4.88;;;21.80;99.90;;;;;;4975962;28;20180;-29
2023/08/23 02:43:01;;;;;;;5.32;4.53;;;21.80;99.90;;;;;;4976680;28;20180;-29
2023/08/23 02:45:27;;;;;;;5.53;5.03;;;21.80;99.90;;;;;;4976398;28;20197;-29
2023/08/23 02:47:52;;;;;;;7.22;4.78;;;21.80;99.90;;;;;;4976103;28;20261;-29
2023/08/23 02:50:18;;;;;;;5.78;4.97;;;21.80;99.90;;;;;;4976334;28;20184;-29
2023/08/23 02:52:44;;;;;;;7.72;4.75;;;21.70;99.90;;;;;;4976180;28;20215;-30
2023/08/23 02:55:10;;;;;;;5.75;4.63;;;21.60;99.90;;;;;;4975855;28;20176;-28
2023/08/23 02:57:36;;;;;;;4.88;4.13;;;21.60;99.90;;;;;;4975850;28;20206;-29
2023/08/23 03:00:02;;;;;;;5.45;4.80;;;21.50;99.90;;;;;;4991120;28;20180;-28
2023/08/23 03:02:27;;;;;;;7.43;5.13;;;21.50;99.90;;;;;;4976175;28;20180;-28
2023/08/23 03:04:53;;;;;;;8.98;5.10;;;21.50;99.90;;;;;;4976276;28;20180;-29
2023/08/23 03:07:19;;;;;;;5.75;5.00;;;21.50;99.90;;;;;;4975223;28;20183;-29
2023/08/23 03:09:45;;;;;;;7.03;5.03;;;21.50;99.90;;;;;;4992104;28;20259;-29
2023/08/23 03:12:11;;;;;;;6.82;4.78;;;21.50;99.90;;;;;;4975692;28;20254;-29
2023/08/23 03:14:36;;;;;;;5.45;4.60;;;21.50;99.90;;;;;;4993274;28;20172;-29
2023/08/23 03:17:03;;;;;;;5.35;4.13;;;21.50;99.90;;;;;;4975440;28;20191;-29
2023/08/23 03:19:28;;;;;;;4.70;4.30;;;21.50;99.90;;;;;;4975499;28;20212;-29
2023/08/23 03:21:54;;;;;;;7.20;4.43;;;21.50;99.90;;;;;;4975743;28;20272;-29
2023/08/23 03:24:21;;;;;;;7.13;4.88;;;21.50;99.90;;;;;;4975454;28;20184;-29
2023/08/23 03:26:47;;;;;;;6.63;4.70;;;21.50;99.90;;;;;;4975592;28;20184;-29
2023/08/23 03:29:13;;;;;;;5.32;4.82;;;21.50;99.90;;;;;;4975544;28;20214;-29
2023/08/23 03:31:39;;;;;;;5.30;4.60;;;21.50;99.90;;;;;;4975539;28;20247;-28
2023/08/23 03:34:08;;;;;;;6.43;4.50;;;21.50;99.90;;;;;;4975720;28;20180;-29
2023/08/23 03:36:34;;;;;;;7.32;4.78;;;21.40;99.90;;;;;;4975099;28;20188;-29
2023/08/23 03:38:59;;;;;;;5.07;4.57;;;21.40;99.90;;;;;;4975096;28;20254;-29
2023/08/23 03:41:28;;;;;;;4.88;4.45;;;21.40;99.90;;;;;;4974766;28;20179;-29
2023/08/23 03:43:54;;;;;;;5.43;4.50;;;21.30;99.90;;;;;;4974975;28;20180;-28
2023/08/23 03:46:25;;;;;;;7.72;5.00;;;21.20;99.90;;;;;;4974413;28;20215;-30
2023/08/23 03:48:52;;;;;;;7.53;4.85;;;21.20;99.90;;;;;;4990799;28;20195;-28
2023/08/23 03:51:17;;;;;;;6.47;5.00;;;21.20;99.90;;;;;;4974908;28;20222;-29
2023/08/23 03:53:43;;;;;;;5.30;4.80;;;21.20;99.90;;;;;;4975064;28;20240;-29
2023/08/23 03:56:09;;;;;;;5.40;4.82;;;21.20;99.90;;;;;;4973770;28;20183;-29
2023/08/23 03:58:36;;;;;;;5.65;4.80;;;21.20;99.90;;;;;;4974724;28;20193;-28
2023/08/23 04:01:02;;;;;;;7.28;4.72;;;21.20;99.90;;;;;;4975163;28;20240;-29
2023/08/23 04:03:28;;;;;;;8.77;7.88;;;21.20;99.90;;;;;;4974946;28;20203;-29
2023/08/23 04:05:54;;;;;;;7.07;5.85;;;21.20;99.90;;;;;;4974418;28;20179;-30
2023/08/23 04:08:20;;;;;;;6.50;5.30;;;21.20;99.90;;;;;;4974771;28;20206;-29
2023/08/23 04:10:49;;;;;;;7.63;5.07;;;21.20;99.90;;;;;;4974917;28;20179;-29
2023/08/23 04:13:16;;;;;;;6.78;5.00;;;21.20;99.90;;;;;;4974882;28;20208;-29
2023/08/23 04:15:44;;;;;;;6.20;5.57;;;21.20;99.90;;;;;;4974642;28;20266;-30
2023/08/23 04:18:10;;;;;;;5.15;4.75;;;21.20;99.90;;;;;;4973919;28;20210;-29
2023/08/23 04:20:38;;;;;;;6.93;4.95;;;21.10;99.90;;;;;;4974591;28;20187;-29
2023/08/23 04:23:05;;;;;;;6.30;5.15;;;21.10;99.90;;;;;;4974579;28;20187;-30
2023/08/23 04:25:31;;;;;;;5.35;4.82;;;21.00;99.90;;;;;;4974596;28;20262;-30
2023/08/23 04:27:57;;;;;;;6.60;4.50;;;20.80;99.90;;;;;;4974647;28;20291;-29
2023/08/23 04:30:23;;;;;;;6.45;4.45;;;20.70;99.90;;;;;;4974606;28;20179;-29
2023/08/23 04:32:51;;;;;;;6.78;5.25;;;20.70;99.90;;;;;;4974546;28;20286;-30
2023/08/23 04:35:17;;;;;;;5.93;5.32;;;20.80;99.90;;;;;;4974208;28;20230;-29
2023/08/23 04:37:43;;;;;;;8.52;5.65;;;20.90;99.90;;;;;;4974536;28;20232;-30
2023/08/23 04:40:10;;;;;;;6.75;5.80;;;20.90;99.90;;;;;;4974542;28;20180;-29
2023/08/23 04:42:39;;;;;;;6.93;5.47;;;20.90;99.90;;;;;;4974074;28;20212;-30
2023/08/23 04:45:05;;;;;;;7.22;4.97;;;20.90;99.90;;;;;;4973368;28;20192;-29
2023/08/23 04:47:32;;;;;;;6.28;4.63;;;20.90;99.90;;;;;;4974095;28;20718;-30
2023/08/23 04:49:58;;;;;;;5.15;4.65;;;20.90;99.90;;;;;;4974431;28;20176;-29
2023/08/23 04:52:24;;;;;;;7.65;5.03;;;20.90;99.90;;;;;;4973924;28;20270;-29
2023/08/23 04:54:50;;;;;;;6.88;4.93;;;20.90;99.90;;;;;;4974325;28;20187;-29
2023/08/23 04:57:16;;;;;;;6.45;5.05;;;20.90;99.90;;;;;;4973930;28;20176;-30
2023/08/23 04:59:42;;;;;;;5.57;4.97;;;21.00;99.90;;;;;;4974093;28;20235;-29
2023/08/23 05:02:08;;;;;;;5.50;5.00;;;20.90;99.90;;;;;;4974379;28;20190;-29
2023/08/23 05:04:33;;;;;;;5.28;4.45;;;20.90;99.90;;;;;;4974059;28;20184;-29
2023/08/23 05:06:59;;;;;;;9.30;5.63;;;21.00;99.90;;;;;;4972947;28;20239;-29
2023/08/23 05:09:28;;;;;;;7.22;5.05;;;21.00;99.90;;;;;;4973400;28;20208;-29
2023/08/23 05:11:54;;;;;;;5.82;4.93;;;21.00;99.90;;;;;;4973952;28;20200;-30
2023/08/23 05:14:20;;;;;;;5.97;4.93;;;21.10;99.90;;;;;;4974041;28;20226;-29
2023/08/23 05:16:46;;;;;;;6.35;5.03;;;21.10;99.90;;;;;;4973680;28;20180;-30
2023/08/23 05:19:12;;;;;;;5.68;4.82;;;21.10;99.90;;;;;;4973808;28;20208;-29
2023/08/23 05:21:39;;;;;;;6.57;5.13;;;21.20;99.90;;;;;;4974267;28;20203;-29
2023/08/23 05:24:07;;;;;;;5.43;4.93;;;21.20;99.90;;;;;;4974383;28;20183;-29
2023/08/23 05:26:33;;;;;;;7.65;6.07;;;21.20;99.90;;;;;;4973728;28;20180;-29
2023/08/23 05:28:58;;;;;;;5.68;5.10;;;21.30;99.90;;;;;;4990058;28;20192;-30
2023/08/23 05:31:24;;;;;;;8.27;5.50;;;21.30;99.90;;;;;;4977520;28;20187;-29
2023/08/23 05:33:50;;;;;;;6.18;5.57;;;21.30;99.90;;;;;;4994188;28;20208;-29
2023/08/23 05:36:16;;;;;;;8.23;5.45;;;21.30;99.90;;;;;;4977602;28;20172;-29
2023/08/23 05:38:42;;;;;;;5.93;5.32;;;21.40;99.90;;;;;;4977615;28;20195;-29
2023/08/23 05:41:09;;;;;;;6.32;5.57;;;21.40;99.90;;;;;;4977562;28;20184;-29
2023/08/23 05:43:34;;;;;;;6.25;5.60;;;21.50;99.90;;;;;;4976831;28;20179;-30
2023/08/23 05:46:02;;;;;;;7.88;5.60;;;21.60;99.90;;;;;;4977532;28;20271;-29
2023/08/23 05:48:28;;;;;;;6.15;5.38;;;21.80;99.90;;;;;;4977303;28;20227;-30
2023/08/23 05:50:54;;;;;;;6.70;5.50;;;21.90;99.90;;;;;;4977846;28;20219;-29
2023/08/23 05:53:20;;;;;;;7.10;5.40;;;22.00;99.90;;;;;;4993465;28;20259;-29
2023/08/23 05:55:48;;;;;;;8.35;5.78;;;22.10;99.90;;;;;;4976872;28;20244;-29
2023/08/23 05:58:16;;;;;;;6.57;5.88;;;22.10;99.90;;;;;;4976908;28;20200;-29
2023/08/23 06:00:42;;;;;;;9.80;5.97;;;22.20;99.90;;;;;;4977552;28;20246;-30
2023/08/23 06:03:07;;;;;;;8.30;6.32;;;22.30;99.90;;;;;;4977292;28;20643;-30
2023/08/23 06:05:33;;;;;;;6.20;5.60;;;22.30;99.90;;;;;;4976345;28;20188;-30
2023/08/23 06:07:59;;;;;;;7.53;6.15;;;22.40;99.90;;;;;;4976603;28;20461;-30
2023/08/23 06:10:25;;;;;;;6.90;5.80;;;22.50;99.90;;;;;;4975310;28;20183;-30
2023/08/23 06:12:51;;;;;;;6.60;5.70;;;22.70;99.90;;;;;;4977149;28;20276;-30
2023/08/23 06:15:16;;;;;;;6.70;5.97;;;22.80;99.90;;;;;;4976850;28;20188;-30
2023/08/23 06:17:42;;;;;;;7.75;6.53;;;22.90;99.90;;;;;;4976474;28;20258;-30
2023/08/23 06:20:08;;;;;;;6.43;5.82;;;23.00;99.90;;;;;;4977160;28;20247;-30
2023/08/23 06:22:34;;;;;;;6.63;6.03;;;23.20;99.90;;;;;;4977074;28;20274;-30
2023/08/23 06:25:00;;;;;;;7.38;6.15;;;23.20;99.90;;;;;;4976958;28;20275;-30
2023/08/23 06:27:26;;;;;;;5.80;5.20;;;23.30;99.90;;;;;;4976493;28;20252;-30
2023/08/23 06:29:51;;;;;;;8.55;5.97;;;23.20;99.90;;;;;;4976743;28;20184;-30
2023/08/23 06:32:19;;;;;;;6.75;5.60;;;23.20;99.90;;;;;;4975923;28;20745;-30
2023/08/23 06:34:44;;;;;;;6.00;5.15;;;23.20;99.90;;;;;;4976521;28;20176;-29
2023/08/23 06:37:11;;;;;;;5.43;4.93;;;23.30;99.90;;;;;;4976491;28;20188;-30
2023/08/23 06:39:36;;;;;;;10.50;5.93;;;23.30;99.90;;;;;;4976409;28;20199;-30
2023/08/23 06:42:02;;;;;;;6.55;5.63;;;23.40;99.90;;;;;;4975434;28;20242;-30
2023/08/23 06:44:29;;;;;;;6.40;5.75;;;23.40;99.90;;;;;;4992546;28;20266;-30
2023/08/23 06:46:55;;;;;;;6.55;5.93;;;23.50;99.90;;;;;;4991517;28;20207;-30
2023/08/23 06:49:21;;;;;;;5.90;5.10;;;23.40;99.90;;;;;;4976285;28;20255;-30
2023/08/23 06:51:47;;;;;;;7.35;6.03;;;23.40;99.90;;;;;;4976081;28;20208;-30
2023/08/23 06:54:12;;;;;;;5.57;5.07;;;23.50;99.90;;;;;;4976171;28;20194;-30
2023/08/23 06:56:38;;;;;;;6.20;4.80;;;23.70;99.90;;;;;;4975890;28;20235;-30
2023/08/23 06:59:04;;;;;;;10.30;6.10;;;23.80;99.90;;;;;;4976066;28;20200;-30
2023/08/23 07:01:30;;;;;;;6.38;5.18;;;23.80;99.90;;;;;;4976321;28;20228;-30
2023/08/23 07:03:56;;;;;;;8.50;5.40;;;23.90;99.90;;;;;;4976046;28;20183;-29
2023/08/23 07:06:21;;;;;;;6.00;5.40;;;24.10;99.90;;;;;;4975764;28;20188;-30
2023/08/23 07:08:47;;;;;;;9.85;5.50;;;24.30;99.90;;;;;;4975459;28;20207;-29
2023/08/23 07:11:13;;;;;;;6.30;4.97;;;24.40;99.90;;;;;;4975918;28;20188;-30
2023/08/23 07:13:39;;;;;;;6.07;5.43;;;24.40;99.90;;;;;;4975969;28;20243;-29
2023/08/23 07:16:05;;;;;;;7.20;5.65;;;24.50;99.90;;;;;;4975496;28;20214;-30
2023/08/23 07:18:37;;;;;;;6.80;6.00;;;24.50;99.90;;;;;;4975506;28;20211;-30
2023/08/23 07:21:03;;;;;;;6.85;5.10;;;24.60;99.90;;;;;;4975590;28;20229;-30
2023/08/23 07:23:29;;;;;;;6.93;6.07;;;24.50;99.90;;;;;;4975652;28;20219;-30
2023/08/23 07:25:55;;;;;;;7.72;5.60;;;24.40;99.90;;;;;;4975680;28;20179;-30
2023/08/23 07:28:21;;;;;;;6.97;5.32;;;24.40;99.90;;;;;;4975036;28;20713;-30
2023/08/23 07:30:49;;;;;;;6.38;5.45;;;24.50;99.90;;;;;;4975405;28;20195;-29
2023/08/23 07:33:16;;;;;;;6.43;5.80;;;24.70;99.90;;;;;;4974450;28;20211;-30
2023/08/23 07:35:42;;;;;;;6.18;5.30;;;24.80;99.90;;;;;;4975416;28;20211;-30
2023/08/23 07:38:08;;;;;;;8.35;5.25;;;24.90;99.90;;;;;;4975321;28;20224;-30
2023/08/23 07:40:38;;;;;;;9.05;5.97;;;24.90;99.90;;;;;;4974544;28;20175;-29
2023/08/23 07:43:04;;;;;;;9.18;5.93;;;24.90;99.90;;;;;;4975566;28;20192;-30
2023/08/23 07:45:30;;;;;;;8.68;5.63;;;25.00;99.90;;;;;;4975317;28;20238;-29
2023/08/23 07:47:56;;;;;;;8.32;5.15;;;25.00;99.90;;;;;;4975085;28;20208;-30
2023/08/23 07:50:21;;;;;;;7.10;5.10;;;25.10;99.90;;;;;;4974782;28;20180;-30
2023/08/23 07:52:48;;;;;;;5.90;5.30;;;25.20;99.90;;;;;;4974919;28;20317;-29
2023/08/23 07:55:13;;;;;;;7.03;4.95;;;25.40;99.90;;;;;;4975182;28;20184;-30
2023/08/23 07:57:39;;;;;;;6.32;5.50;;;25.30;99.90;;;;;;4974782;28;20254;-30
2023/08/23 08:00:06;;;;;;;7.50;5.28;;;25.30;99.90;;;;;;4975009;28;20188;-30
2023/08/23 08:02:32;;;;;;;8.93;5.47;;;25.50;99.90;;;;;;4991202;28;20284;-30
2023/08/23 08:04:57;;;;;;;5.68;4.90;;;25.50;99.90;;;;;;4974317;28;20195;-30
2023/08/23 08:07:23;;;;;;;5.53;5.03;;;25.50;99.90;;;;;;4974368;28;20184;-30
2023/08/23 08:09:49;;;;;;;7.00;4.97;;;25.50;99.90;;;;;;4975139;28;20195;-30
2023/08/23 08:12:15;;;;;;;10.38;5.88;;;25.40;99.90;;;;;;4974725;28;20212;-30
2023/08/23 08:14:41;;;;;;;5.65;5.13;;;25.40;99.90;;;;;;4974846;28;20231;-30
2023/08/23 08:17:07;;;;;;;6.60;5.90;;;25.50;99.90;;;;;;4974526;28;20206;-30
2023/08/23 08:19:32;;;;;;;5.80;5.20;;;25.50;99.90;;;;;;4974414;28;20267;-30
2023/08/23 08:21:58;;;;;;;8.85;5.60;;;25.60;99.90;;;;;;4974855;28;20188;-29
2023/08/23 08:24:27;;;;;;;6.07;5.55;;;25.70;99.90;;;;;;4974985;28;20199;-30
2023/08/23 08:26:52;;;;;;;6.78;5.70;;;25.80;99.90;;;;;;4974311;28;20180;-30
2023/08/23 08:29:18;;;;;;;6.25;5.05;;;25.80;99.90;;;;;;4974292;28;20208;-30
2023/08/23 08:31:44;;;;;;;8.93;5.05;;;25.90;99.90;;;;;;4974500;28;20215;-30
2023/08/23 08:34:10;;;;;;;7.35;5.28;;;25.90;99.90;;;;;;4974386;28;20226;-30
2023/08/23 08:36:36;;;;;;;6.13;5.53;;;26.00;99.90;;;;;;4974329;28;20261;-30
2023/08/23 08:39:02;;;;;;;5.47;5.00;;;26.00;99.90;;;;;;4974566;28;20200;-30
2023/08/23 08:41:29;;;;;;;6.47;5.15;;;26.10;99.90;;;;;;4974229;28;20176;-30
2023/08/23 08:43:55;;;;;;;5.78;5.25;;;26.10;99.90;;;;;;4973898;28;20282;-30
2023/08/23 08:46:21;;;;;;;7.30;5.10;;;26.10;99.90;;;;;;4973545;28;20190;-30
2023/08/23 08:48:46;;;;;;;5.18;4.68;;;26.20;99.90;;;;;;4990446;28;20200;-30
2023/08/23 08:51:19;;;;;;;6.00;5.00;;;26.30;99.90;;;;;;4974221;28;20750;-30
2023/08/23 08:53:50;;;;;;;5.55;5.00;;;26.50;99.90;;;;;;4974367;28;20327;-31
2023/08/23 08:56:19;;;;;;;6.07;5.00;;;26.50;99.90;;;;;;4973968;28;20175;-30
2023/08/23 08:58:46;;;;;;;5.63;5.03;;;26.70;99.90;;;;;;4973886;28;20207;-30
2023/08/23 09:01:14;;;;;;;6.68;5.22;;;26.80;99.90;;;;;;4990332;28;20211;-30
2023/08/23 09:03:41;;;;;;;9.02;5.45;;;26.90;99.90;;;;;;4974319;28;20392;-30
2023/08/23 09:06:08;;;;;;;7.72;4.78;;;27.00;99.90;;;;;;4977621;28;20287;-31
2023/08/23 09:08:34;;;;;;;6.47;4.80;;;27.10;99.90;;;;;;4977984;28;20246;-30
2023/08/23 09:11:00;;;;;;;6.70;4.68;;;27.40;99.90;;;;;;4978142;28;20184;-31
2023/08/23 09:13:25;;;;;;;7.22;4.95;;;27.60;99.90;;;;;;4977714;28;20211;-30
2023/08/23 09:15:51;;;;;;;6.15;4.72;;;27.70;99.90;;;;;;4977895;28;20191;-31
2023/08/23 09:18:20;;;;;;;5.65;4.30;;;27.70;99.90;;;;;;4977745;28;20250;-31
2023/08/23 09:20:47;;;;;;;8.00;4.47;;;27.80;99.90;;;;;;4977340;28;20180;-30
2023/08/23 09:23:12;;;;;;;5.85;4.80;;;27.90;99.90;;;;;;4976856;28;20184;-30
2023/08/23 09:25:38;;;;;;;8.48;4.90;;;27.90;99.90;;;;;;4977645;28;20183;-30
2023/08/23 09:28:04;;;;;;;4.28;3.63;;;27.80;99.90;;;;;;4977274;28;20314;-31
2023/08/23 09:30:32;;;;;;;5.05;4.07;;;27.80;99.90;;;;;;4977337;28;20211;-30
2023/08/23 09:32:58;;;;;;;5.93;4.38;;;27.90;99.90;;;;;;4977385;28;20262;-31
2023/08/23 09:35:24;;;;;;;6.80;4.20;;;28.00;99.90;;;;;;4977813;28;20184;-30
2023/08/23 09:37:50;;;;;;;5.47;4.07;;;27.90;99.90;;;;;;4977251;28;20204;-31
2023/08/23 09:40:23;;;;;;;6.20;4.45;;;28.00;99.90;;;;;;4993876;28;20200;-30
2023/08/23 09:42:50;;;;;;;12.27;4.75;;;28.20;99.90;;;;;;4977422;28;20184;-30
2023/08/23 09:45:23;;;;;;;6.30;4.53;;;28.10;99.90;;;;;;4977356;28;20218;-31
2023/08/23 09:47:56;;;;;;;5.57;4.80;;;28.30;99.90;;;;;;4977251;28;20204;-30
2023/08/23 09:50:24;;;;;;;8.15;4.95;;;28.40;99.90;;;;;;4976861;28;20187;-31
2023/08/23 09:52:52;;;;;;;8.05;5.00;;;28.40;99.90;;;;;;4977552;28;20231;-31
2023/08/23 09:55:18;;;;;;;7.32;4.63;;;28.50;99.90;;;;;;4977260;28;20187;-31
2023/08/23 09:57:44;;;;;;;8.48;4.60;;;28.50;99.90;;;;;;4976938;28;20208;-31
2023/08/23 10:00:11;;;;;;;5.25;4.22;;;28.80;99.90;;;;;;4977199;28;20191;-31
2023/08/23 10:02:41;;;;;;;7.57;4.25;;;29.00;99.90;;;;;;4977153;28;20219;-31
2023/08/23 10:05:11;;;;;;;6.38;4.32;;;29.10;99.90;;;;;;4977480;28;20180;-30
2023/08/23 10:07:39;;;;;;;5.03;4.28;;;29.10;99.90;;;;;;4976208;28;20227;-30
2023/08/23 10:10:06;;;;;;;6.68;3.88;;;29.00;99.90;;;;;;4977304;28;20275;-30
2023/08/23 10:12:40;;;;;;;4.53;3.75;;;29.30;99.90;;;;;;4977002;28;20203;-31
2023/08/23 10:15:08;;;;;;;4.50;4.10;;;29.50;99.90;;;;;;4975603;28;20646;-30
2023/08/23 10:17:36;;;;;;;4.53;3.78;;;29.60;99.90;;;;;;4990256;28;20177;-31
2023/08/23 10:20:07;;;;;;;4.20;3.90;;;29.60;99.90;;;;;;4998982;28;20210;-29
2023/08/23 10:22:33;;;;;;;5.18;4.47;;;29.70;99.90;;;;;;4999350;28;20284;-30
2023/08/23 10:24:59;;;;;;;4.95;4.45;;;29.50;99.90;;;;;;4999355;28;20213;-30
2023/08/23 10:27:25;;;;;;;5.63;4.70;;;29.70;99.90;;;;;;4999060;28;20215;-30
2023/08/23 10:29:51;;;;;;;8.98;4.50;;;30.00;99.90;;;;;;4999365;28;20191;-30
2023/08/23 10:32:18;;;;;;;5.75;4.07;;;30.20;99.90;;;;;;4998830;28;20241;-30
2023/08/23 10:34:43;;;;;;;7.07;4.45;;;30.40;99.90;;;;;;4999151;28;20273;-30
2023/08/23 10:37:17;;;;;;;7.18;4.30;;;30.60;99.90;;;;;;4998854;28;20257;-30
2023/08/23 10:39:55;;;;;;;4.97;4.18;;;30.80;99.90;;;;;;4999443;28;20281;-30
2023/08/23 10:42:22;;;;;;;4.82;4.43;;;31.10;99.90;;;;;;4998277;28;20285;-30
2023/08/23 10:45:04;;;;;;;6.15;4.13;;;31.30;99.90;;;;;;4999030;28;20178;-30
2023/08/23 10:47:36;;;;;;;7.10;4.05;;;31.30;99.90;;;;;;5014706;28;20187;-30
2023/08/23 10:50:03;;;;;;;5.35;4.35;;;31.40;99.90;;;;;;4998945;28;20183;-30
2023/08/23 10:52:30;;;;;;;5.25;4.75;;;31.60;99.90;;;;;;4998267;28;20210;-30
2023/08/23 10:54:57;;;;;;;5.40;4.20;;;31.80;99.90;;;;;;4999011;28;20178;-30
2023/08/23 10:57:23;;;;;;;6.20;4.30;;;31.80;99.90;;;;;;4998656;28;20183;-30
2023/08/23 10:59:48;;;;;;;4.00;3.60;;;31.70;99.90;;;;;;4999076;28;20185;-30
2023/08/23 11:02:15;;;;;;;6.07;4.18;;;31.60;99.90;;;;;;4998911;28;20179;-30
2023/08/23 11:04:42;;;;;;;4.22;3.83;;;31.80;99.90;;;;;;4998262;28;20186;-31
2023/08/23 11:07:09;;;;;;;4.38;4.03;;;31.90;99.90;;;;;;4998694;28;20179;-30
2023/08/23 11:09:35;;;;;;;8.32;4.25;;;32.00;99.90;;;;;;4998302;28;20214;-30
2023/08/23 11:12:03;;;;;;;7.50;4.05;;;32.10;99.90;;;;;;4998332;28;20261;-30
2023/08/23 11:14:29;;;;;;;5.18;3.60;;;32.10;99.90;;;;;;4998497;28;20202;-31
2023/08/23 11:16:56;;;;;;;5.25;4.22;;;32.00;99.90;;;;;;4998318;28;20229;-30
2023/08/23 11:19:22;;;;;;;5.13;4.25;;;32.10;99.90;;;;;;4998243;28;20233;-30
2023/08/23 11:21:48;;;;;;;6.72;4.60;;;32.00;99.90;;;;;;5014869;28;20178;-30
2023/08/23 11:24:13;;;;;;;6.18;3.72;;;32.00;99.90;;;;;;4998161;28;20229;-30
2023/08/23 11:26:39;;;;;;;9.65;4.70;;;32.00;99.90;;;;;;4997883;28;20214;-30
2023/08/23 11:29:07;;;;;;;5.72;3.80;;;32.00;99.90;;;;;;4998049;28;20205;-30
2023/08/23 11:31:34;;;;;;;5.85;4.28;;;32.10;99.90;;;;;;4998292;28;20183;-30
2023/08/23 11:34:05;;;;;;;5.47;3.88;;;31.80;99.90;;;;;;4997976;28;20237;-30
2023/08/23 11:36:35;;;;;;;5.50;4.03;;;31.80;99.90;;;;;;4996779;28;20277;-30
2023/08/23 11:39:06;;;;;;;6.03;4.03;;;31.80;99.90;;;;;;4998091;28;20235;-30
2023/08/23 11:41:33;;;;;;;5.80;3.92;;;31.90;99.90;;;;;;4997901;28;20289;-30
2023/08/23 11:44:04;;;;;;;4.60;4.20;;;31.70;99.90;;;;;;4997808;28;20183;-30
2023/08/23 11:46:30;;;;;;;6.03;4.38;;;31.90;99.90;;;;;;4995732;28;20186;-30
2023/08/23 11:48:56;;;;;;;5.00;4.10;;;32.00;99.90;;;;;;4997339;28;20206;-30
2023/08/23 11:51:22;;;;;;;6.20;3.65;;;32.00;99.90;;;;;;4997958;28;20187;-30
2023/08/23 11:53:52;;;;;;;5.05;4.00;;;32.00;99.90;;;;;;4997707;28;20210;-30
2023/08/23 11:56:19;;;;;;;4.40;4.00;;;32.00;99.90;;;;;;4997677;28;20183;-30
2023/08/23 11:58:45;;;;;;;7.72;3.90;;;32.00;99.90;;;;;;4997047;28;20206;-30
2023/08/23 12:01:11;;;;;;;4.47;3.72;;;32.10;99.90;;;;;;4997566;28;20178;-30
2023/08/23 12:03:37;;;;;;;6.82;3.83;;;32.20;99.90;;;;;;4996417;28;20233;-30
2023/08/23 12:06:03;;;;;;;7.35;4.60;;;32.60;99.90;;;;;;4997279;28;20679;-30
2023/08/23 12:08:29;;;;;;;4.78;4.28;;;32.70;99.90;;;;;;4996678;28;20210;-30
2023/08/23 12:10:54;;;;;;;5.53;4.25;;;32.80;99.90;;;;;;4997536;28;20183;-31
2023/08/23 12:13:20;;;;;;;4.22;3.60;;;33.00;99.90;;;;;;4996451;28;20272;-31
2023/08/23 12:15:46;;;;;;;4.63;3.55;;;32.90;99.90;;;;;;4997619;28;20186;-31
2023/08/23 12:18:12;;;;;;;5.70;4.03;;;33.20;99.90;;;;;;4996753;28;20213;-31
2023/08/23 12:20:38;;;;;;;5.70;4.30;;;33.50;99.90;;;;;;4996576;28;20186;-31
2023/08/23 12:23:04;;;;;;;5.65;4.15;;;33.70;99.90;;;;;;4997358;28;20191;-31
2023/08/23 12:25:30;;;;;;;5.88;4.20;;;33.60;99.90;;;;;;4997284;28;20182;-31
2023/08/23 12:27:55;;;;;;;5.10;4.00;;;33.60;99.90;;;;;;4997015;28;20202;-31
2023/08/23 12:30:21;;;;;;;6.40;4.25;;;33.60;99.90;;;;;;4997146;28;20183;-30
2023/08/23 12:32:47;;;;;;;4.30;4.00;;;33.50;99.90;;;;;;4997145;28;20252;-31
2023/08/23 12:35:13;;;;;;;5.90;3.80;;;33.60;99.90;;;;;;4996855;28;20178;-31
2023/08/23 12:37:39;;;;;;;5.38;3.97;;;33.70;99.90;;;;;;4996829;28;20198;-31
2023/08/23 12:40:08;;;;;;;4.80;4.03;;;33.70;99.90;;;;;;4996171;28;20187;-31
2023/08/23 12:42:34;;;;;;;6.45;4.20;;;34.00;99.90;;;;;;4996892;28;20185;-32
2023/08/23 12:45:00;;;;;;;9.10;4.32;;;34.20;99.90;;;;;;4996458;28;20179;-31